ZBTJ/TSN METAR and TAF weather

Enter ICAO airport designator
Station Type Date Time Source
ZBTJ METAR 2020/11/27 13:30 UTC NOAA

ZBTJ 271330Z 32004MPS CAVOK 02/M11 Q1038 NOSIG


Station Type Date Time Source
ZBTJ Decoded METAR 2020/11/27 13:30 UTC NOAA

Tianjin / Zhangguizhu, China (ZBTJ) 39-11N 117-21E
Nov 27, 2020 - 08:30 AM EST / 2020.11.27 1330 UTC
Wind: from the NW (320 degrees) at 9 MPH (8 KT):0
Visibility: greater than 7 mile(s):0
Temperature: 35 F (2 C)
Windchill: 28 F (-2 C):1
Dew Point: 12 F (-11 C)
Relative Humidity: 37%
Pressure (altimeter): 30.65 in. Hg (1038 hPa)
ob: ZBTJ 271330Z 32004MPS CAVOK 02/M11 Q1038 NOSIG
cycle: 13

Station Type Date Time Source
ZBTJ TAF 2020/11/27 12:03 UTC NOAA

TAF ZBTJ 270901Z 2712/2812 34003MPS 5000 HZ NSC TX05/2806Z TNM03/2721Z

Example: see airport list